sensor_id;sensor_type;location;lat;lon;timestamp;pressure;altitude;pressure_sealevel;temperature;humidity
78313;BME280;67568;47.438;21.408;2024-01-06T00:00:16;99802.78;;;4.86;95.23
78313;BME280;67568;47.438;21.408;2024-01-06T00:02:43;99799.50;;;4.84;94.10
78313;BME280;67568;47.438;21.408;2024-01-06T00:05:10;99802.25;;;4.84;94.53
78313;BME280;67568;47.438;21.408;2024-01-06T00:07:37;99796.78;;;4.69;95.01
78313;BME280;67568;47.438;21.408;2024-01-06T00:10:04;99786.91;;;4.73;94.40
78313;BME280;67568;47.438;21.408;2024-01-06T00:12:31;99796.78;;;4.69;94.23
78313;BME280;67568;47.438;21.408;2024-01-06T00:14:58;99799.50;;;4.69;95.07
78313;BME280;67568;47.438;21.408;2024-01-06T00:17:25;99790.47;;;4.73;94.87
78313;BME280;67568;47.438;21.408;2024-01-06T00:19:51;99789.34;;;4.74;93.91
78313;BME280;67568;47.438;21.408;2024-01-06T00:22:18;99791.56;;;4.72;93.70
78313;BME280;67568;47.438;21.408;2024-01-06T00:24:48;99788.53;;;4.74;94.13
78313;BME280;67568;47.438;21.408;2024-01-06T00:27:15;99793.47;;;4.77;93.74
78313;BME280;67568;47.438;21.408;2024-01-06T00:29:42;99789.63;;;4.78;92.92
78313;BME280;67568;47.438;21.408;2024-01-06T00:32:08;99785.22;;;4.82;93.42
78313;BME280;67568;47.438;21.408;2024-01-06T00:34:35;99786.88;;;4.83;93.53
78313;BME280;67568;47.438;21.408;2024-01-06T00:37:02;99785.22;;;4.82;92.17
78313;BME280;67568;47.438;21.408;2024-01-06T00:39:29;99789.91;;;4.87;92.53
78313;BME280;67568;47.438;21.408;2024-01-06T00:41:56;99785.75;;;4.89;92.44
78313;BME280;67568;47.438;21.408;2024-01-06T00:44:23;99782.47;;;4.82;93.14
78313;BME280;67568;47.438;21.408;2024-01-06T00:46:49;99781.66;;;4.87;91.92
78313;BME280;67568;47.438;21.408;2024-01-06T00:49:16;99784.94;;;4.84;92.04
78313;BME280;67568;47.438;21.408;2024-01-06T00:51:46;99784.94;;;4.84;91.66
78313;BME280;67568;47.438;21.408;2024-01-06T00:54:13;99790.97;;;4.86;92.07
78313;BME280;67568;47.438;21.408;2024-01-06T00:56:40;99781.94;;;4.85;92.73
78313;BME280;67568;47.438;21.408;2024-01-06T00:59:07;99785.50;;;4.86;92.32
78313;BME280;67568;47.438;21.408;2024-01-06T01:01:34;99777.53;;;4.84;91.63
78313;BME280;67568;47.438;21.408;2024-01-06T01:04:01;99784.41;;;4.82;92.33
78313;BME280;67568;47.438;21.408;2024-01-06T01:06:28;99776.44;;;4.80;92.07
78313;BME280;67568;47.438;21.408;2024-01-06T01:08:55;99781.41;;;4.78;91.62
78313;BME280;67568;47.438;21.408;2024-01-06T01:11:22;99778.94;;;4.82;90.59
78313;BME280;67568;47.438;21.408;2024-01-06T01:13:49;99778.09;;;4.81;90.67
78313;BME280;67568;47.438;21.408;2024-01-06T01:16:16;99778.09;;;4.76;90.64
78313;BME280;67568;47.438;21.408;2024-01-06T01:18:43;99770.94;;;4.80;91.42
78313;BME280;67568;47.438;21.408;2024-01-06T01:21:10;99771.22;;;4.84;91.90
78313;BME280;67568;47.438;21.408;2024-01-06T01:23:38;99761.91;;;4.74;91.49
78313;BME280;67568;47.438;21.408;2024-01-06T01:26:05;99756.16;;;4.76;91.22
78313;BME280;67568;47.438;21.408;2024-01-06T01:28:31;99755.28;;;4.86;91.49
78313;BME280;67568;47.438;21.408;2024-01-06T01:30:58;99743.75;;;4.84;90.99
78313;BME280;67568;47.438;21.408;2024-01-06T01:33:26;99749.00;;;4.75;92.39
78313;BME280;67568;47.438;21.408;2024-01-06T01:35:53;99741.88;;;4.69;93.12
78313;BME280;67568;47.438;21.408;2024-01-06T01:38:20;99735.88;;;4.62;93.27
78313;BME280;67568;47.438;21.408;2024-01-06T01:40:47;99743.31;;;4.56;92.97
78313;BME280;67568;47.438;21.408;2024-01-06T01:43:19;99733.44;;;4.50;93.34
78313;BME280;67568;47.438;21.408;2024-01-06T01:45:53;99726.00;;;4.61;92.85
78313;BME280;67568;47.438;21.408;2024-01-06T01:48:22;99727.66;;;4.57;92.24
78313;BME280;67568;47.438;21.408;2024-01-06T01:50:52;99728.19;;;4.64;91.79
78313;BME280;67568;47.438;21.408;2024-01-06T01:53:20;99720.53;;;4.56;92.75
78313;BME280;67568;47.438;21.408;2024-01-06T01:55:48;99713.13;;;4.51;92.55
78313;BME280;67568;47.438;21.408;2024-01-06T01:58:15;99716.44;;;4.53;93.08
78313;BME280;67568;47.438;21.408;2024-01-06T02:00:43;99710.13;;;4.42;92.61
78313;BME280;67568;47.438;21.408;2024-01-06T02:03:11;99710.09;;;4.58;91.79
78313;BME280;67568;47.438;21.408;2024-01-06T02:05:39;99705.72;;;4.57;92.14
78313;BME280;67568;47.438;21.408;2024-01-06T02:08:06;99705.16;;;4.55;91.77
78313;BME280;67568;47.438;21.408;2024-01-06T02:10:33;99701.88;;;4.58;92.21
78313;BME280;67568;47.438;21.408;2024-01-06T02:13:12;99704.34;;;4.59;91.64
78313;BME280;67568;47.438;21.408;2024-01-06T02:15:39;99693.88;;;4.66;89.81
78313;BME280;67568;47.438;21.408;2024-01-06T02:18:06;99688.38;;;4.77;90.19
78313;BME280;67568;47.438;21.408;2024-01-06T02:20:34;99689.19;;;4.72;91.64
78313;BME280;67568;47.438;21.408;2024-01-06T02:23:01;99684.50;;;4.78;90.46
78313;BME280;67568;47.438;21.408;2024-01-06T02:25:28;99683.69;;;4.82;88.57
78313;BME280;67568;47.438;21.408;2024-01-06T02:27:55;99691.59;;;4.89;88.01
78313;BME280;67568;47.438;21.408;2024-01-06T02:30:22;99683.09;;;4.90;87.53
78313;BME280;67568;47.438;21.408;2024-01-06T02:32:49;99677.53;;;5.01;87.10
78313;BME280;67568;47.438;21.408;2024-01-06T02:35:16;99677.50;;;5.11;86.54
78313;BME280;67568;47.438;21.408;2024-01-06T02:37:43;99675.31;;;5.13;85.73
78313;BME280;67568;47.438;21.408;2024-01-06T02:40:10;99673.34;;;5.18;85.31
78313;BME280;67568;47.438;21.408;2024-01-06T02:42:38;99666.41;;;5.31;83.74
78313;BME280;67568;47.438;21.408;2024-01-06T02:45:07;99670.19;;;5.40;82.99
78313;BME280;67568;47.438;21.408;2024-01-06T02:47:34;99667.94;;;5.53;81.17
78313;BME280;67568;47.438;21.408;2024-01-06T02:50:01;99661.81;;;5.61;81.12
78313;BME280;67568;47.438;21.408;2024-01-06T02:52:28;99661.19;;;5.69;80.29
78313;BME280;67568;47.438;21.408;2024-01-06T02:54:55;99666.63;;;5.79;80.25
78313;BME280;67568;47.438;21.408;2024-01-06T02:57:22;99657.50;;;5.84;78.92
78313;BME280;67568;47.438;21.408;2024-01-06T02:59:49;99658.88;;;5.86;78.06
78313;BME280;67568;47.438;21.408;2024-01-06T03:02:16;99664.88;;;5.89;77.99
78313;BME280;67568;47.438;21.408;2024-01-06T03:04:43;99664.31;;;5.92;78.30
78313;BME280;67568;47.438;21.408;2024-01-06T03:07:10;99663.22;;;5.93;78.47
78313;BME280;67568;47.438;21.408;2024-01-06T03:09:37;99661.06;;;5.84;79.01
78313;BME280;67568;47.438;21.408;2024-01-06T03:12:05;99658.56;;;5.88;79.04
78313;BME280;67568;47.438;21.408;2024-01-06T03:14:35;99661.31;;;5.93;78.19
78313;BME280;67568;47.438;21.408;2024-01-06T03:17:03;99657.16;;;5.96;79.45
78313;BME280;67568;47.438;21.408;2024-01-06T03:19:32;99664.53;;;6.00;77.92
78313;BME280;67568;47.438;21.408;2024-01-06T03:21:59;99663.19;;;5.98;77.85
78313;BME280;67568;47.438;21.408;2024-01-06T03:24:26;99670.91;;;5.96;77.56
78313;BME280;67568;47.438;21.408;2024-01-06T03:26:53;99664.28;;;5.97;77.58
78313;BME280;67568;47.438;21.408;2024-01-06T03:29:20;99670.56;;;6.02;79.37
78313;BME280;67568;47.438;21.408;2024-01-06T03:31:49;99672.53;;;5.97;79.27
78313;BME280;67568;47.438;21.408;2024-01-06T03:34:16;99673.63;;;6.01;79.22
78313;BME280;67568;47.438;21.408;2024-01-06T03:36:43;99672.53;;;5.97;80.20
78313;BME280;67568;47.438;21.408;2024-01-06T03:39:10;99674.19;;;5.98;78.52
78313;BME280;67568;47.438;21.408;2024-01-06T03:41:37;99668.44;;;5.94;79.97
78313;BME280;67568;47.438;21.408;2024-01-06T03:44:04;99677.81;;;5.93;80.91
78313;BME280;67568;47.438;21.408;2024-01-06T03:46:33;99675.88;;;5.89;81.75
78313;BME280;67568;47.438;21.408;2024-01-06T03:49:00;99673.25;;;5.73;81.49
78313;BME280;67568;47.438;21.408;2024-01-06T03:51:27;99671.66;;;5.67;82.76
78313;BME280;67568;47.438;21.408;2024-01-06T03:53:54;99678.25;;;5.66;82.12
78313;BME280;67568;47.438;21.408;2024-01-06T03:56:21;99672.97;;;5.75;82.77
78313;BME280;67568;47.438;21.408;2024-01-06T03:58:48;99676.56;;;5.75;82.01
78313;BME280;67568;47.438;21.408;2024-01-06T04:01:15;99668.59;;;5.74;81.52
78313;BME280;67568;47.438;21.408;2024-01-06T04:03:42;99672.66;;;5.81;80.67
78313;BME280;67568;47.438;21.408;2024-01-06T04:06:09;99670.97;;;5.85;81.56
78313;BME280;67568;47.438;21.408;2024-01-06T04:08:36;99669.31;;;5.84;80.93
78313;BME280;67568;47.438;21.408;2024-01-06T04:11:03;99672.03;;;5.90;82.20
78313;BME280;67568;47.438;21.408;2024-01-06T04:13:29;99672.00;;;5.95;78.49
78313;BME280;67568;47.438;21.408;2024-01-06T04:15:56;99675.78;;;6.04;79.32
78313;BME280;67568;47.438;21.408;2024-01-06T04:18:23;99674.63;;;6.10;78.13
78313;BME280;67568;47.438;21.408;2024-01-06T04:20:50;99670.13;;;6.19;78.44
78313;BME280;67568;47.438;21.408;2024-01-06T04:23:17;99672.63;;;6.21;78.84
78313;BME280;67568;47.438;21.408;2024-01-06T04:25:43;99677.56;;;6.19;80.19
78313;BME280;67568;47.438;21.408;2024-01-06T04:28:13;99669.00;;;6.20;79.23
78313;BME280;67568;47.438;21.408;2024-01-06T04:30:40;99678.38;;;6.19;80.04
78313;BME280;67568;47.438;21.408;2024-01-06T04:33:07;99669.00;;;6.20;80.66
78313;BME280;67568;47.438;21.408;2024-01-06T04:35:34;99673.38;;;6.26;79.60
78313;BME280;67568;47.438;21.408;2024-01-06T04:38:01;99657.94;;;6.30;80.07
78313;BME280;67568;47.438;21.408;2024-01-06T04:40:28;99671.88;;;6.39;80.98
78313;BME280;67568;47.438;21.408;2024-01-06T04:42:54;99671.22;;;6.47;80.12
78313;BME280;67568;47.438;21.408;2024-01-06T04:45:22;99670.38;;;6.52;79.90
78313;BME280;67568;47.438;21.408;2024-01-06T04:47:49;99671.94;;;6.58;80.18
78313;BME280;67568;47.438;21.408;2024-01-06T04:50:16;99674.13;;;6.61;80.54
78313;BME280;67568;47.438;21.408;2024-01-06T04:52:43;99673.28;;;6.61;80.96
78313;BME280;67568;47.438;21.408;2024-01-06T04:55:10;99673.28;;;6.61;81.47
78313;BME280;67568;47.438;21.408;2024-01-06T04:57:37;99665.84;;;6.61;81.88
78313;BME280;67568;47.438;21.408;2024-01-06T05:00:04;99672.75;;;6.59;81.82
78313;BME280;67568;47.438;21.408;2024-01-06T05:02:31;99670.28;;;6.57;82.03
78313;BME280;67568;47.438;21.408;2024-01-06T05:04:58;99673.56;;;6.59;82.88
78313;BME280;67568;47.438;21.408;2024-01-06T05:07:25;99679.06;;;6.59;83.79
78313;BME280;67568;47.438;21.408;2024-01-06T05:09:52;99680.19;;;6.58;84.80
78313;BME280;67568;47.438;21.408;2024-01-06T05:12:19;99680.47;;;6.57;83.80
78313;BME280;67568;47.438;21.408;2024-01-06T05:14:46;99678.03;;;6.55;84.65
78313;BME280;67568;47.438;21.408;2024-01-06T05:17:13;99676.38;;;6.54;86.17
78313;BME280;67568;47.438;21.408;2024-01-06T05:19:39;99670.06;;;6.53;87.21
78313;BME280;67568;47.438;21.408;2024-01-06T05:22:06;99679.44;;;6.52;87.38
78313;BME280;67568;47.438;21.408;2024-01-06T05:24:33;99677.56;;;6.48;87.77
78313;BME280;67568;47.438;21.408;2024-01-06T05:27:00;99671.28;;;6.42;88.18
78313;BME280;67568;47.438;21.408;2024-01-06T05:29:27;99668.84;;;6.41;89.10
78313;BME280;67568;47.438;21.408;2024-01-06T05:31:54;99660.31;;;6.37;91.64
78313;BME280;67568;47.438;21.408;2024-01-06T05:34:21;99669.41;;;6.38;90.36
78313;BME280;67568;47.438;21.408;2024-01-06T05:36:48;99668.88;;;6.36;91.95
78313;BME280;67568;47.438;21.408;2024-01-06T05:39:14;99663.06;;;6.37;91.43
78313;BME280;67568;47.438;21.408;2024-01-06T05:41:41;99668.34;;;6.34;93.37
78313;BME280;67568;47.438;21.408;2024-01-06T05:44:08;99656.81;;;6.31;92.93
78313;BME280;67568;47.438;21.408;2024-01-06T05:46:35;99669.16;;;6.34;94.11
78313;BME280;67568;47.438;21.408;2024-01-06T05:49:02;99658.47;;;6.33;93.76
78313;BME280;67568;47.438;21.408;2024-01-06T05:51:29;99666.72;;;6.33;94.00
78313;BME280;67568;47.438;21.408;2024-01-06T05:53:56;99665.59;;;6.34;95.69
78313;BME280;67568;47.438;21.408;2024-01-06T05:56:26;99666.66;;;6.38;96.57
78313;BME280;67568;47.438;21.408;2024-01-06T05:58:54;99663.91;;;6.38;96.34
78313;BME280;67568;47.438;21.408;2024-01-06T06:01:21;99660.59;;;6.41;96.08
78313;BME280;67568;47.438;21.408;2024-01-06T06:03:50;99660.00;;;6.44;96.73
78313;BME280;67568;47.438;21.408;2024-01-06T06:06:18;99666.00;;;6.46;97.00
78313;BME280;67568;47.438;21.408;2024-01-06T06:08:45;99658.28;;;6.48;95.82
78313;BME280;67568;47.438;21.408;2024-01-06T06:11:12;99658.81;;;6.50;95.49
78313;BME280;67568;47.438;21.408;2024-01-06T06:13:42;99661.28;;;6.51;95.77
78313;BME280;67568;47.438;21.408;2024-01-06T06:16:10;99659.06;;;6.53;95.85
78313;BME280;67568;47.438;21.408;2024-01-06T06:18:37;99662.94;;;6.52;96.08
78313;BME280;67568;47.438;21.408;2024-01-06T06:21:04;99656.03;;;6.55;94.42
78313;BME280;67568;47.438;21.408;2024-01-06T06:23:31;99662.34;;;6.56;94.27
78313;BME280;67568;47.438;21.408;2024-01-06T06:25:58;99648.28;;;6.57;94.45
78313;BME280;67568;47.438;21.408;2024-01-06T06:28:25;99653.19;;;6.60;93.60
78313;BME280;67568;47.438;21.408;2024-01-06T06:30:52;99650.22;;;6.57;93.83
78313;BME280;67568;47.438;21.408;2024-01-06T06:33:19;99656.25;;;6.59;94.44
78313;BME280;67568;47.438;21.408;2024-01-06T06:35:46;99655.13;;;6.60;95.44
78313;BME280;67568;47.438;21.408;2024-01-06T06:38:12;99649.97;;;6.53;94.21
78313;BME280;67568;47.438;21.408;2024-01-06T06:40:39;99645.81;;;6.56;94.68
78313;BME280;67568;47.438;21.408;2024-01-06T06:43:06;99636.75;;;6.55;94.70
78313;BME280;67568;47.438;21.408;2024-01-06T06:45:32;99638.09;;;6.58;93.19
78313;BME280;67568;47.438;21.408;2024-01-06T06:47:59;99637.25;;;6.57;94.42
78313;BME280;67568;47.438;21.408;2024-01-06T06:50:26;99629.00;;;6.57;94.36
78313;BME280;67568;47.438;21.408;2024-01-06T06:52:53;99631.69;;;6.62;92.98
78313;BME280;67568;47.438;21.408;2024-01-06T06:55:20;99627.25;;;6.66;93.01
78313;BME280;67568;47.438;21.408;2024-01-06T06:57:46;99628.91;;;6.67;92.76
78313;BME280;67568;47.438;21.408;2024-01-06T07:00:13;99631.88;;;6.71;92.90
78313;BME280;67568;47.438;21.408;2024-01-06T07:02:40;99634.34;;;6.72;93.70
78313;BME280;67568;47.438;21.408;2024-01-06T07:05:07;99641.47;;;6.73;93.44
78313;BME280;67568;47.438;21.408;2024-01-06T07:07:34;99640.06;;;6.76;92.90
78313;BME280;67568;47.438;21.408;2024-01-06T07:10:01;99635.53;;;6.66;93.03
78313;BME280;67568;47.438;21.408;2024-01-06T07:12:28;99633.88;;;6.65;94.90
78313;BME280;67568;47.438;21.408;2024-01-06T07:14:55;99637.16;;;6.67;93.22
78313;BME280;67568;47.438;21.408;2024-01-06T07:17:22;99638.28;;;6.66;93.95
78313;BME280;67568;47.438;21.408;2024-01-06T07:19:49;99631.88;;;6.71;94.38
78313;BME280;67568;47.438;21.408;2024-01-06T07:22:16;99635.56;;;6.61;94.49
78313;BME280;67568;47.438;21.408;2024-01-06T07:24:43;99635.53;;;6.66;93.88
78313;BME280;67568;47.438;21.408;2024-01-06T07:27:10;99655.06;;;6.65;94.26
78313;BME280;67568;47.438;21.408;2024-01-06T07:29:36;99646.53;;;6.66;94.47
78313;BME280;67568;47.438;21.408;2024-01-06T07:32:03;99650.03;;;6.72;94.72
78313;BME280;67568;47.438;21.408;2024-01-06T07:34:30;99649.28;;;6.66;94.22
78313;BME280;67568;47.438;21.408;2024-01-06T07:36:57;99654.69;;;6.71;94.72
78313;BME280;67568;47.438;21.408;2024-01-06T07:39:24;99662.97;;;6.71;95.26
78313;BME280;67568;47.438;21.408;2024-01-06T07:41:51;99656.59;;;6.76;93.97
78313;BME280;67568;47.438;21.408;2024-01-06T07:44:17;99673.34;;;6.80;93.85
78313;BME280;67568;47.438;21.408;2024-01-06T07:46:44;99668.41;;;6.76;95.40
78313;BME280;67568;47.438;21.408;2024-01-06T07:49:11;99662.16;;;6.71;95.28
78313;BME280;67568;47.438;21.408;2024-01-06T07:51:38;99667.22;;;6.83;94.50
78313;BME280;67568;47.438;21.408;2024-01-06T07:54:04;99675.50;;;6.83;95.52
78313;BME280;67568;47.438;21.408;2024-01-06T07:56:31;99663.06;;;6.85;95.51
78313;BME280;67568;47.438;21.408;2024-01-06T07:58:58;99666.91;;;6.89;95.32
78313;BME280;67568;47.438;21.408;2024-01-06T08:01:25;99661.13;;;6.86;96.24
78313;BME280;67568;47.438;21.408;2024-01-06T08:03:51;99664.38;;;6.93;95.47
78313;BME280;67568;47.438;21.408;2024-01-06T08:06:19;99668.00;;;6.88;96.31
78313;BME280;67568;47.438;21.408;2024-01-06T08:08:46;99666.91;;;6.89;95.47
78313;BME280;67568;47.438;21.408;2024-01-06T08:11:12;99672.50;;;7.03;95.96
78313;BME280;67568;47.438;21.408;2024-01-06T08:13:39;99670.25;;;7.05;96.70
78313;BME280;67568;47.438;21.408;2024-01-06T08:16:06;99676.56;;;7.06;96.85
78313;BME280;67568;47.438;21.408;2024-01-06T08:18:33;99664.41;;;7.12;94.57
78313;BME280;67568;47.438;21.408;2024-01-06T08:21:00;99667.88;;;6.98;95.32
78313;BME280;67568;47.438;21.408;2024-01-06T08:23:26;99667.00;;;7.03;94.87
78313;BME280;67568;47.438;21.408;2024-01-06T08:25:53;99673.66;;;6.97;95.86
78313;BME280;67568;47.438;21.408;2024-01-06T08:28:20;99675.53;;;7.02;95.49
78313;BME280;67568;47.438;21.408;2024-01-06T08:30:47;99682.69;;;7.03;97.40
78313;BME280;67568;47.438;21.408;2024-01-06T08:33:14;99675.53;;;7.02;97.74
78313;BME280;67568;47.438;21.408;2024-01-06T08:35:41;99684.19;;;6.95;98.19
78313;BME280;67568;47.438;21.408;2024-01-06T08:38:07;99678.19;;;6.88;97.57
78313;BME280;67568;47.438;21.408;2024-01-06T08:40:35;99674.34;;;6.89;97.60
78313;BME280;67568;47.438;21.408;2024-01-06T08:43:02;99679.13;;;7.02;96.63
78313;BME280;67568;47.438;21.408;2024-01-06T08:45:29;99684.34;;;7.04;95.18
78313;BME280;67568;47.438;21.408;2024-01-06T08:47:56;99682.09;;;7.06;95.44
78313;BME280;67568;47.438;21.408;2024-01-06T08:50:23;99685.84;;;7.15;95.44
78313;BME280;67568;47.438;21.408;2024-01-06T08:52:50;99685.25;;;7.18;95.74
78313;BME280;67568;47.438;21.408;2024-01-06T08:55:16;99688.88;;;7.13;96.13
78313;BME280;67568;47.438;21.408;2024-01-06T08:57:43;99686.00;;;7.24;95.80
78313;BME280;67568;47.438;21.408;2024-01-06T09:00:10;99684.28;;;7.28;95.53
78313;BME280;67568;47.438;21.408;2024-01-06T09:02:37;99678.25;;;7.26;95.51
78313;BME280;67568;47.438;21.408;2024-01-06T09:05:04;99679.38;;;7.25;95.40
78313;BME280;67568;47.438;21.408;2024-01-06T09:07:31;99681.75;;;7.31;96.48
78313;BME280;67568;47.438;21.408;2024-01-06T09:09:58;99672.53;;;7.41;94.66
78313;BME280;67568;47.438;21.408;2024-01-06T09:12:25;99680.28;;;7.39;96.30
78313;BME280;67568;47.438;21.408;2024-01-06T09:14:52;99674.69;;;7.44;96.55
78313;BME280;67568;47.438;21.408;2024-01-06T09:17:18;99665.59;;;7.43;97.84
78313;BME280;67568;47.438;21.408;2024-01-06T09:19:45;99670.38;;;7.38;98.32
78313;BME280;67568;47.438;21.408;2024-01-06T09:22:12;99665.28;;;7.45;97.48
78313;BME280;67568;47.438;21.408;2024-01-06T09:24:39;99667.09;;;7.55;98.21
78313;BME280;67568;47.438;21.408;2024-01-06T09:27:06;99663.34;;;7.46;99.46
78313;BME280;67568;47.438;21.408;2024-01-06T09:29:33;99665.75;;;7.52;99.67
78313;BME280;67568;47.438;21.408;2024-01-06T09:31:59;99667.03;;;7.41;100.00
78313;BME280;67568;47.438;21.408;2024-01-06T09:34:26;99659.72;;;7.50;100.00
78313;BME280;67568;47.438;21.408;2024-01-06T09:36:53;99662.41;;;7.55;99.50
78313;BME280;67568;47.438;21.408;2024-01-06T09:39:20;99657.31;;;7.62;99.44
78313;BME280;67568;47.438;21.408;2024-01-06T09:41:46;99652.03;;;7.66;100.00
78313;BME280;67568;47.438;21.408;2024-01-06T09:44:13;99657.59;;;7.80;99.23
78313;BME280;67568;47.438;21.408;2024-01-06T09:46:43;99650.44;;;7.79;98.72
78313;BME280;67568;47.438;21.408;2024-01-06T09:49:09;99647.47;;;7.75;100.00
78313;BME280;67568;47.438;21.408;2024-01-06T09:51:39;99648.47;;;7.98;99.27
78313;BME280;67568;47.438;21.408;2024-01-06T09:54:09;99646.97;;;8.06;97.72
78313;BME280;67568;47.438;21.408;2024-01-06T09:56:36;99643.97;;;8.02;97.87
78313;BME280;67568;47.438;21.408;2024-01-06T09:59:03;99642.88;;;8.03;98.91
78313;BME280;67568;47.438;21.408;2024-01-06T10:01:30;99629.22;;;7.93;99.26
78313;BME280;67568;47.438;21.408;2024-01-06T10:03:57;99630.50;;;8.01;98.75
78313;BME280;67568;47.438;21.408;2024-01-06T10:06:23;99629.69;;;8.00;98.86
78313;BME280;67568;47.438;21.408;2024-01-06T10:08:52;99628.03;;;7.99;99.60
78313;BME280;67568;47.438;21.408;2024-01-06T10:11:19;99634.59;;;8.03;98.60
78313;BME280;67568;47.438;21.408;2024-01-06T10:13:49;99625.91;;;8.10;98.36
78313;BME280;67568;47.438;21.408;2024-01-06T10:16:17;99621.00;;;8.07;98.27
78313;BME280;67568;47.438;21.408;2024-01-06T10:18:44;99630.53;;;8.15;97.29
78313;BME280;67568;47.438;21.408;2024-01-06T10:21:14;99619.25;;;8.11;97.42
78313;BME280;67568;47.438;21.408;2024-01-06T10:23:41;99617.84;;;8.14;98.65
78313;BME280;67568;47.438;21.408;2024-01-06T10:26:12;99625.41;;;8.22;98.63
78313;BME280;67568;47.438;21.408;2024-01-06T10:28:39;99620.59;;;8.14;99.66
78313;BME280;67568;47.438;21.408;2024-01-06T10:31:07;99619.66;;;8.04;99.73
78313;BME280;67568;47.438;21.408;2024-01-06T10:33:35;99612.44;;;8.08;100.00
78313;BME280;67568;47.438;21.408;2024-01-06T10:36:02;99611.09;;;8.06;100.00
78313;BME280;67568;47.438;21.408;2024-01-06T10:38:29;99605.25;;;8.07;100.00
78313;BME280;67568;47.438;21.408;2024-01-06T10:41:00;99600.25;;;8.09;100.00
78313;BME280;67568;47.438;21.408;2024-01-06T10:43:27;99596.38;;;8.10;100.00
78313;BME280;67568;47.438;21.408;2024-01-06T10:45:55;99592.72;;;8.15;100.00
78313;BME280;67568;47.438;21.408;2024-01-06T10:48:24;99599.84;;;8.16;100.00
78313;BME280;67568;47.438;21.408;2024-01-06T10:50:51;99573.19;;;8.11;100.00
78313;BME280;67568;47.438;21.408;2024-01-06T10:53:20;99583.72;;;8.09;100.00
78313;BME280;67568;47.438;21.408;2024-01-06T10:55:49;99571.03;;;8.08;100.00
78313;BME280;67568;47.438;21.408;2024-01-06T10:58:21;99577.06;;;8.10;100.00
78313;BME280;67568;47.438;21.408;2024-01-06T11:00:48;99578.59;;;8.17;100.00
78313;BME280;67568;47.438;21.408;2024-01-06T11:03:17;99578.88;;;8.01;100.00
78313;BME280;67568;47.438;21.408;2024-01-06T11:05:44;99564.47;;;8.04;100.00
78313;BME280;67568;47.438;21.408;2024-01-06T11:08:12;99564.47;;;8.04;100.00
78313;BME280;67568;47.438;21.408;2024-01-06T11:10:39;99559.50;;;8.06;100.00
78313;BME280;67568;47.438;21.408;2024-01-06T11:13:21;99563.06;;;8.21;100.00
78313;BME280;67568;47.438;21.408;2024-01-06T11:15:50;99557.03;;;8.19;100.00
78313;BME280;67568;47.438;21.408;2024-01-06T11:18:37;99563.50;;;8.14;100.00
78313;BME280;67568;47.438;21.408;2024-01-06T11:23:38;99540.19;;;8.06;100.00
78313;BME280;67568;47.438;21.408;2024-01-06T11:26:06;99543.47;;;8.08;100.00
78313;BME280;67568;47.438;21.408;2024-01-06T11:28:46;99536.81;;;8.09;100.00
78313;BME280;67568;47.438;21.408;2024-01-06T11:31:13;99530.16;;;8.10;100.00
78313;BME280;67568;47.438;21.408;2024-01-06T11:33:44;99526.47;;;8.15;100.00
78313;BME280;67568;47.438;21.408;2024-01-06T11:36:11;99518.72;;;8.17;100.00
78313;BME280;67568;47.438;21.408;2024-01-06T11:38:38;99522.69;;;8.25;100.00
78313;BME280;67568;47.438;21.408;2024-01-06T11:41:09;99519.53;;;8.18;100.00
78313;BME280;67568;47.438;21.408;2024-01-06T11:43:37;99520.06;;;8.20;100.00
78313;BME280;67568;47.438;21.408;2024-01-06T11:46:07;99515.03;;;8.22;100.00
78313;BME280;67568;47.438;21.408;2024-01-06T11:48:35;99517.06;;;8.30;100.00
78313;BME280;67568;47.438;21.408;2024-01-06T11:51:03;99520.88;;;8.34;100.00
78313;BME280;67568;47.438;21.408;2024-01-06T11:53:30;99515.34;;;8.34;100.00
78313;BME280;67568;47.438;21.408;2024-01-06T11:55:57;99512.59;;;8.34;100.00
78313;BME280;67568;47.438;21.408;2024-01-06T11:58:24;99505.94;;;8.35;100.00
78313;BME280;67568;47.438;21.408;2024-01-06T12:00:57;99510.41;;;8.31;100.00
78313;BME280;67568;47.438;21.408;2024-01-06T12:03:24;99504.09;;;8.30;100.00
78313;BME280;67568;47.438;21.408;2024-01-06T12:06:01;99515.44;;;8.29;100.00
78313;BME280;67568;47.438;21.408;2024-01-06T12:08:28;99513.09;;;8.22;100.00
78313;BME280;67568;47.438;21.408;2024-01-06T12:11:04;99507.88;;;8.21;100.00
78313;BME280;67568;47.438;21.408;2024-01-06T12:13:31;99503.59;;;8.15;100.00
78313;BME280;67568;47.438;21.408;2024-01-06T12:15:58;99500.63;;;8.11;100.00
78313;BME280;67568;47.438;21.408;2024-01-06T12:18:25;99493.78;;;8.08;100.00
78313;BME280;67568;47.438;21.408;2024-01-06T12:20:53;99503.19;;;8.07;100.00
78313;BME280;67568;47.438;21.408;2024-01-06T12:23:27;99501.03;;;8.04;100.00
78313;BME280;67568;47.438;21.408;2024-01-06T12:25:55;99489.19;;;8.04;100.00
78313;BME280;67568;47.438;21.408;2024-01-06T12:28:21;99493.97;;;7.98;100.00
78313;BME280;67568;47.438;21.408;2024-01-06T12:30:48;99491.53;;;7.97;100.00
78313;BME280;67568;47.438;21.408;2024-01-06T12:33:15;99481.53;;;7.87;100.00
78313;BME280;67568;47.438;21.408;2024-01-06T12:35:43;99491.66;;;7.92;100.00
78313;BME280;67568;47.438;21.408;2024-01-06T12:38:10;99485.00;;;7.93;100.00
78313;BME280;67568;47.438;21.408;2024-01-06T12:40:37;99486.63;;;7.94;100.00
78313;BME280;67568;47.438;21.408;2024-01-06T12:43:05;99479.28;;;7.89;100.00
78313;BME280;67568;47.438;21.408;2024-01-06T12:45:31;99485.50;;;7.81;100.00
78313;BME280;67568;47.438;21.408;2024-01-06T12:47:58;99482.34;;;7.87;100.00
78313;BME280;67568;47.438;21.408;2024-01-06T12:50:25;99484.06;;;7.83;100.00
78313;BME280;67568;47.438;21.408;2024-01-06T12:52:52;99471.72;;;7.81;100.00
78313;BME280;67568;47.438;21.408;2024-01-06T12:55:19;99477.31;;;7.76;100.00
78313;BME280;67568;47.438;21.408;2024-01-06T12:57:45;99486.72;;;7.75;100.00
78313;BME280;67568;47.438;21.408;2024-01-06T13:00:13;99483.66;;;7.76;100.00